createdAt,value
2019-03-11T00:02:02.044Z,100520.77
2019-03-11T00:04:29.180Z,100518.78
2019-03-11T00:06:55.819Z,100525.75
2019-03-11T00:09:22.515Z,100521.48
2019-03-11T00:11:49.341Z,100521.72
2019-03-11T00:14:16.117Z,100516.04
2019-03-11T00:16:42.761Z,100509.34
2019-03-11T00:19:09.607Z,100506.51
2019-03-11T00:21:36.253Z,100493.67
2019-03-11T00:24:03.099Z,100488.61
2019-03-11T00:26:29.800Z,100485.56
2019-03-11T00:28:56.446Z,100484.87
2019-03-11T00:31:23.204Z,100487.23
2019-03-11T00:33:49.864Z,100486.45
2019-03-11T00:36:16.668Z,100485.86
2019-03-11T00:38:43.592Z,100477.89
2019-03-11T00:41:10.355Z,100484.33
2019-03-11T00:43:37.014Z,100477.89
2019-03-11T00:46:03.936Z,100488.59
2019-03-11T00:48:30.594Z,100491.05
2019-03-11T00:50:57.345Z,100496.32
2019-03-11T00:53:24.106Z,100516.12
2019-03-11T00:55:50.822Z,100525.43
2019-03-11T00:58:17.596Z,100516.41
2019-03-11T01:00:44.383Z,100525.78
2019-03-11T01:03:11.148Z,100533.91
2019-03-11T01:05:37.852Z,100542.36
2019-03-11T01:08:04.619Z,100532.27
2019-03-11T01:10:31.549Z,100520.31
2019-03-11T01:12:58.416Z,100518.50
2019-03-11T01:15:25.332Z,100512.53
2019-03-11T01:17:52.125Z,100517.03
2019-03-11T01:20:19.050Z,100501.80
2019-03-11T01:22:45.709Z,100502.50
2019-03-11T01:25:13.329Z,100496.22
2019-03-11T01:27:40.307Z,100497.56
2019-03-11T01:30:07.675Z,100487.89
2019-03-11T01:32:34.762Z,100483.42
2019-03-11T01:35:01.866Z,100484.34
2019-03-11T01:37:28.881Z,100489.97
2019-03-11T01:39:55.649Z,100485.13
2019-03-11T01:42:22.488Z,100485.89
2019-03-11T01:44:49.126Z,100487.98
2019-03-11T01:47:15.881Z,100488.21
2019-03-11T01:49:42.629Z,100492.28
2019-03-11T01:52:09.323Z,100495.28
2019-03-11T01:54:36.086Z,100479.17
2019-03-11T01:57:02.994Z,100484.11
2019-03-11T01:59:29.758Z,100494.37
2019-03-11T02:01:56.474Z,100502.09
2019-03-11T02:04:23.245Z,100490.89
2019-03-11T02:06:50.060Z,100497.87
2019-03-11T02:09:17.044Z,100490.02
2019-03-11T02:11:43.809Z,100483.44
2019-03-11T02:14:10.481Z,100482.73
2019-03-11T02:16:37.273Z,100481.56
2019-03-11T02:19:04.040Z,100471.83
2019-03-11T02:21:30.697Z,100470.45
2019-03-11T02:23:57.464Z,100477.91
2019-03-11T02:26:24.119Z,100470.30
2019-03-11T02:28:50.950Z,100482.03
2019-03-11T02:31:17.716Z,100486.94
2019-03-11T02:33:44.565Z,100485.56
2019-03-11T02:36:11.391Z,100479.28
2019-03-11T02:38:38.234Z,100481.36
2019-03-11T02:41:04.957Z,100481.00
2019-03-11T02:43:31.702Z,100485.70
2019-03-11T02:45:58.464Z,100477.41
2019-03-11T02:48:25.238Z,100473.31
2019-03-11T02:50:51.878Z,100484.59
2019-03-11T02:53:18.537Z,100489.48
2019-03-11T02:55:45.179Z,100487.27
2019-03-11T02:58:11.937Z,100490.29
2019-03-11T03:00:38.688Z,100487.94
2019-03-11T03:03:24.656Z,100483.51
2019-03-11T03:05:55.058Z,100493.00
2019-03-11T03:08:21.801Z,100491.95
2019-03-11T03:10:48.435Z,100492.36
2019-03-11T03:13:15.215Z,100479.69
2019-03-11T03:15:41.979Z,100481.06
2019-03-11T03:18:08.649Z,100479.41
2019-03-11T03:20:35.409Z,100490.34
2019-03-11T03:23:02.291Z,100480.21
2019-03-11T03:25:34.594Z,100474.10
2019-03-11T03:27:59.373Z,100481.75
2019-03-11T03:30:26.397Z,100469.14
2019-03-11T03:32:53.129Z,100481.06
2019-03-11T03:35:19.939Z,100477.58
2019-03-11T03:37:46.557Z,100478.97
2019-03-11T03:40:13.589Z,100486.86
2019-03-11T03:42:40.710Z,100475.00
2019-03-11T03:45:37.691Z,100476.98
2019-03-11T03:48:04.569Z,100475.13
2019-03-11T03:50:33.547Z,100469.53
2019-03-11T03:53:00.295Z,100475.44
2019-03-11T03:55:27.059Z,100473.03
2019-03-11T03:57:53.790Z,100470.23
2019-03-11T04:00:20.534Z,100481.41
2019-03-11T04:02:47.628Z,100477.87
2019-03-11T04:05:14.481Z,100477.66
2019-03-11T04:07:41.342Z,100484.87
2019-03-11T04:10:09.631Z,100480.58
2019-03-11T04:12:36.357Z,100475.98
2019-03-11T04:15:03.915Z,100480.57
2019-03-11T04:17:30.837Z,100479.56
2019-03-11T04:19:57.800Z,100486.73
2019-03-11T04:22:24.587Z,100496.58
2019-03-11T04:24:51.353Z,100500.48
2019-03-11T04:27:18.020Z,100500.22
2019-03-11T04:29:45.344Z,100496.22
2019-03-11T04:32:12.096Z,100500.27
2019-03-11T04:34:38.899Z,100491.66
2019-03-11T04:37:05.547Z,100482.88
2019-03-11T04:39:32.286Z,100478.44
2019-03-11T04:41:59.017Z,100491.59
2019-03-11T04:44:25.770Z,100497.82
2019-03-11T04:46:52.643Z,100493.95
2019-03-11T04:49:19.475Z,100490.01
2019-03-11T04:51:46.242Z,100500.44
2019-03-11T04:54:13.120Z,100496.22
2019-03-11T04:56:39.759Z,100501.64
2019-03-11T04:59:11.562Z,100498.08
2019-03-11T05:01:38.507Z,100495.20
2019-03-11T05:04:05.419Z,100494.95
2019-03-11T05:06:32.207Z,100498.61
2019-03-11T05:08:58.979Z,100507.45
2019-03-11T05:11:25.747Z,100508.95
2019-03-11T05:13:52.669Z,100506.71
2019-03-11T05:16:19.337Z,100509.80
2019-03-11T05:18:46.132Z,100508.73
2019-03-11T05:21:12.938Z,100522.36
2019-03-11T05:23:39.604Z,100509.88
2019-03-11T05:26:06.463Z,100515.51
2019-03-11T05:28:33.401Z,100519.13
2019-03-11T05:31:00.081Z,100519.13
2019-03-11T05:33:26.759Z,100509.94
2019-03-11T05:35:53.835Z,100507.92
2019-03-11T05:38:21.024Z,100513.48
2019-03-11T05:40:48.004Z,100509.95
2019-03-11T05:43:14.680Z,100509.94
2019-03-11T05:45:41.751Z,100509.17
2019-03-11T05:48:08.491Z,100517.95
2019-03-11T05:50:35.226Z,100512.90
2019-03-11T05:53:01.966Z,100524.80
2019-03-11T05:55:28.704Z,100531.38
2019-03-11T05:57:55.426Z,100527.45
2019-03-11T06:00:25.719Z,100538.42
2019-03-11T06:02:52.461Z,100541.64
2019-03-11T06:05:19.386Z,100560.30
2019-03-11T06:07:46.267Z,100557.40
2019-03-11T06:10:13.248Z,100537.67
2019-03-11T06:12:40.154Z,100564.28
2019-03-11T06:15:07.580Z,100552.59
2019-03-11T06:17:34.281Z,100564.53
2019-03-11T06:20:29.625Z,100568.66
2019-03-11T06:22:57.022Z,100566.52
2019-03-11T06:25:23.902Z,100560.28
2019-03-11T06:27:50.739Z,100562.61
2019-03-11T06:30:17.537Z,100578.88
2019-03-11T06:32:44.320Z,100578.97
2019-03-11T06:35:11.072Z,100584.03
2019-03-11T06:37:38.021Z,100586.80
2019-03-11T06:40:05.450Z,100584.86
2019-03-11T06:42:32.168Z,100593.43
2019-03-11T06:44:58.822Z,100593.96
2019-03-11T06:47:25.605Z,100597.58
2019-03-11T06:49:52.247Z,100598.81
2019-03-11T06:52:19.261Z,100591.44
2019-03-11T06:54:46.695Z,100602.19
2019-03-11T06:57:13.371Z,100602.59
2019-03-11T06:59:40.033Z,100596.46
2019-03-11T07:02:06.989Z,100589.91
2019-03-11T07:04:33.617Z,100606.58
2019-03-11T07:07:00.500Z,100596.29
2019-03-11T07:09:27.260Z,100602.09
2019-03-11T07:11:54.018Z,100597.85
2019-03-11T07:14:20.810Z,100602.39
2019-03-11T07:16:47.579Z,100602.05
2019-03-11T07:19:14.347Z,100608.53
2019-03-11T07:21:41.022Z,100601.44
2019-03-11T07:24:07.677Z,100607.36
2019-03-11T07:26:34.478Z,100608.84
2019-03-11T07:29:01.352Z,100611.66
2019-03-11T07:31:28.473Z,100621.39
2019-03-11T07:33:55.359Z,100615.41
2019-03-11T07:36:22.254Z,100619.41
2019-03-11T07:38:48.904Z,100620.01
2019-03-11T07:41:16.048Z,100622.30
2019-03-11T07:43:43.144Z,100626.81
2019-03-11T07:46:09.792Z,100621.82
2019-03-11T07:48:36.531Z,100621.74
2019-03-11T07:51:03.399Z,100622.70
2019-03-11T07:53:30.255Z,100634.72
2019-03-11T07:55:57.033Z,100644.70
2019-03-11T07:58:23.719Z,100642.91
2019-03-11T08:01:10.093Z,100649.89
2019-03-11T08:03:36.827Z,100643.95
2019-03-11T08:06:03.684Z,100648.60
2019-03-11T08:08:30.316Z,100648.88
2019-03-11T08:10:57.015Z,100651.52
2019-03-11T08:13:23.627Z,100666.63
2019-03-11T08:15:50.236Z,100661.13
2019-03-11T08:18:16.966Z,100675.41
2019-03-11T08:20:43.587Z,100674.15
2019-03-11T08:23:10.197Z,100678.27
2019-03-11T08:25:36.929Z,100677.63
2019-03-11T08:28:03.670Z,100689.06
2019-03-11T08:30:30.388Z,100679.45
2019-03-11T08:32:57.011Z,100677.31
2019-03-11T08:35:23.718Z,100665.06
2019-03-11T08:37:50.339Z,100666.02
2019-03-11T08:40:16.974Z,100679.00
2019-03-11T08:42:43.727Z,100683.12
2019-03-11T08:45:10.849Z,100676.44
2019-03-11T08:47:37.745Z,100687.41
2019-03-11T08:50:05.617Z,100689.95
2019-03-11T08:52:32.243Z,100693.55
2019-03-11T08:54:58.884Z,100696.91
2019-03-11T08:57:25.511Z,100699.02
2019-03-11T08:59:52.251Z,100701.27
2019-03-11T09:02:19.005Z,100697.41
2019-03-11T09:04:45.616Z,100710.63
2019-03-11T09:07:12.248Z,100711.05
2019-03-11T09:09:39.182Z,100714.94
2019-03-11T09:12:05.978Z,100702.81
2019-03-11T09:14:32.589Z,100713.30
2019-03-11T09:16:59.261Z,100713.23
2019-03-11T09:19:26.068Z,100716.03
2019-03-11T09:21:52.683Z,100722.30
2019-03-11T09:24:19.761Z,100726.00
2019-03-11T09:26:46.368Z,100728.77
2019-03-11T09:29:12.991Z,100723.98
2019-03-11T09:31:39.749Z,100749.53
2019-03-11T09:34:06.329Z,100747.48
2019-03-11T09:36:33.064Z,100749.60
2019-03-11T09:38:59.915Z,100743.53
2019-03-11T09:41:26.758Z,100762.02
2019-03-11T09:43:54.135Z,100741.29
2019-03-11T09:46:20.900Z,100757.78
2019-03-11T09:48:47.696Z,100751.02
2019-03-11T09:51:14.320Z,100749.52
2019-03-11T09:53:40.977Z,100753.02
2019-03-11T09:56:09.755Z,100750.63
2019-03-11T09:58:36.448Z,100751.03
2019-03-11T10:01:04.139Z,100755.97
2019-03-11T10:03:31.187Z,100762.06
2019-03-11T10:05:57.791Z,100758.44
2019-03-11T10:08:25.281Z,100754.16
2019-03-11T10:10:51.980Z,100749.52
2019-03-11T10:13:18.713Z,100748.67
2019-03-11T10:15:45.555Z,100749.26
2019-03-11T10:18:12.535Z,100754.36
2019-03-11T10:20:39.481Z,100754.89
2019-03-11T10:23:07.922Z,100749.16
2019-03-11T10:25:35.022Z,100756.12
2019-03-11T10:28:01.676Z,100764.54
2019-03-11T10:30:28.317Z,100757.59
2019-03-11T10:32:55.612Z,100757.80
2019-03-11T10:35:37.618Z,100763.41
2019-03-11T10:37:51.040Z,100772.80
2019-03-11T10:40:18.659Z,100769.06
2019-03-11T10:42:45.501Z,100793.92
2019-03-11T10:45:12.703Z,100791.97
2019-03-11T10:47:39.315Z,100789.36
2019-03-11T10:50:06.831Z,100780.22
2019-03-11T10:52:33.576Z,100789.82
2019-03-11T10:55:00.348Z,100801.16
2019-03-11T10:57:27.070Z,100788.69
2019-03-11T10:59:53.705Z,100804.84
2019-03-11T11:02:20.524Z,100800.05
2019-03-11T11:04:48.111Z,100788.41
2019-03-11T11:07:14.944Z,100794.80
2019-03-11T11:09:41.667Z,100798.12
2019-03-11T11:12:08.379Z,100801.50
2019-03-11T11:14:35.025Z,100813.94
2019-03-11T11:17:01.896Z,100812.48
2019-03-11T11:19:28.517Z,100819.31
2019-03-11T11:21:55.181Z,100820.75
2019-03-11T11:24:21.833Z,100827.63
2019-03-11T11:26:48.449Z,100832.83
2019-03-11T11:29:15.100Z,100834.98
2019-03-11T11:31:41.724Z,100847.78
2019-03-11T11:34:08.455Z,100844.59
2019-03-11T11:36:35.095Z,100858.09
2019-03-11T11:39:01.923Z,100857.48
2019-03-11T11:41:28.552Z,100866.98
2019-03-11T11:43:55.363Z,100855.09
2019-03-11T11:46:21.986Z,100858.59
2019-03-11T11:48:48.960Z,100847.39
2019-03-11T11:51:15.693Z,100848.30
2019-03-11T11:53:42.854Z,100852.00
2019-03-11T11:56:09.546Z,100851.76
2019-03-11T11:58:36.281Z,100844.88
2019-03-11T12:01:03.614Z,100852.64
2019-03-11T12:03:30.317Z,100852.28
2019-03-11T12:05:57.199Z,100857.89
2019-03-11T12:08:23.910Z,100847.05
2019-03-11T12:10:50.648Z,100853.69
2019-03-11T12:13:17.473Z,100861.11
2019-03-11T12:15:44.072Z,100878.44
2019-03-11T12:18:10.776Z,100891.02
2019-03-11T12:20:37.433Z,100882.89
2019-03-11T12:23:04.236Z,100874.59
2019-03-11T12:25:31.085Z,100866.11
2019-03-11T12:27:58.571Z,100885.23
2019-03-11T12:30:25.813Z,100873.63
2019-03-11T12:32:52.522Z,100877.47
2019-03-11T12:35:19.279Z,100885.73
2019-03-11T12:37:46.047Z,100878.76
2019-03-11T12:40:13.173Z,100883.89
2019-03-11T12:42:39.937Z,100888.11
2019-03-11T12:45:08.549Z,100878.79
2019-03-11T12:47:35.364Z,100878.45
2019-03-11T12:50:02.285Z,100887.67
2019-03-11T12:52:28.890Z,100885.09
2019-03-11T12:54:55.550Z,100885.05
2019-03-11T12:57:22.313Z,100881.93
2019-03-11T12:59:49.075Z,100885.36
2019-03-11T13:02:15.688Z,100879.60
2019-03-11T13:04:42.421Z,100882.73
2019-03-11T13:07:09.125Z,100891.77
2019-03-11T13:09:35.877Z,100896.66
2019-03-11T13:12:02.735Z,100869.86
2019-03-11T13:14:29.497Z,100886.02
2019-03-11T13:16:56.111Z,100894.44
2019-03-11T13:19:22.740Z,100897.09
2019-03-11T13:21:49.545Z,100910.88
2019-03-11T13:24:16.171Z,100885.88
2019-03-11T13:26:42.994Z,100912.56
2019-03-11T13:29:09.705Z,100925.64
2019-03-11T13:31:36.420Z,100924.16
2019-03-11T13:34:03.256Z,100930.91
2019-03-11T13:36:30.072Z,100924.20
2019-03-11T13:38:56.771Z,100931.09
2019-03-11T13:41:23.622Z,100923.50
2019-03-11T13:43:50.444Z,100939.56
2019-03-11T13:46:17.072Z,100931.47
2019-03-11T13:48:43.835Z,100920.98
2019-03-11T13:51:10.651Z,100975.30
2019-03-11T13:53:37.547Z,100959.94
2019-03-11T13:56:04.375Z,100957.42
2019-03-11T13:58:33.074Z,100960.39
2019-03-11T14:00:59.531Z,100950.86
2019-03-11T14:03:26.160Z,100952.11
2019-03-11T14:05:52.870Z,100924.30
2019-03-11T14:08:19.477Z,100947.93
2019-03-11T14:10:46.204Z,100939.91
2019-03-11T14:13:12.816Z,100941.70
2019-03-11T14:15:39.655Z,100961.53
2019-03-11T14:18:06.476Z,100965.53
2019-03-11T14:20:33.273Z,100961.83
2019-03-11T14:22:59.929Z,100938.77
2019-03-11T14:25:26.562Z,100973.92
2019-03-11T14:27:53.160Z,100993.15
2019-03-11T14:30:19.887Z,100970.22
2019-03-11T14:32:46.616Z,100988.19
2019-03-11T14:35:13.434Z,100982.25
2019-03-11T14:37:40.283Z,100986.30
2019-03-11T14:40:07.586Z,100989.82
2019-03-11T14:42:34.286Z,101005.68
2019-03-11T14:45:00.897Z,100975.55
2019-03-11T14:47:27.639Z,100984.66
2019-03-11T14:49:54.361Z,100970.78
2019-03-11T14:52:20.980Z,100991.34
2019-03-11T14:54:47.744Z,100990.09
2019-03-11T14:57:14.356Z,100969.17
2019-03-11T14:59:40.974Z,100987.88
2019-03-11T15:02:07.770Z,100974.97
2019-03-11T15:04:34.388Z,100972.75
2019-03-11T15:07:01.024Z,100986.47
2019-03-11T15:09:27.655Z,100973.92
2019-03-11T15:11:54.289Z,100996.19
2019-03-11T15:14:21.019Z,100998.88
2019-03-11T15:16:47.769Z,101008.48
2019-03-11T15:19:14.470Z,100995.81
2019-03-11T15:21:41.352Z,100977.90
2019-03-11T15:24:08.188Z,101002.02
2019-03-11T15:26:34.904Z,100988.81
2019-03-11T15:29:01.564Z,101004.49
2019-03-11T15:31:28.290Z,100997.06
2019-03-11T15:33:54.888Z,101007.30
2019-03-11T15:36:32.860Z,101017.48
2019-03-11T15:38:50.255Z,101008.62
2019-03-11T15:41:16.961Z,101014.32
2019-03-11T15:43:43.590Z,101009.73
2019-03-11T15:46:10.328Z,101040.10
2019-03-11T15:48:37.054Z,101045.47
2019-03-11T15:51:03.682Z,101048.62
2019-03-11T15:53:30.431Z,101045.00
2019-03-11T15:55:57.146Z,101050.08
2019-03-11T15:58:23.736Z,101052.30
2019-03-11T16:00:50.612Z,101092.80
2019-03-11T16:03:17.277Z,101068.97
2019-03-11T16:05:43.996Z,101117.04
2019-03-11T16:08:10.733Z,101122.80
2019-03-11T16:10:37.463Z,101123.50
2019-03-11T16:13:04.291Z,101125.14
2019-03-11T16:15:30.910Z,101149.73
2019-03-11T16:17:57.534Z,101146.39
2019-03-11T16:20:24.564Z,101143.21
2019-03-11T16:22:51.195Z,101169.00
2019-03-11T16:25:18.062Z,101145.56
2019-03-11T16:27:44.887Z,101146.63
2019-03-11T16:30:14.165Z,101153.20
2019-03-11T16:32:57.248Z,101160.92
2019-03-11T16:35:09.595Z,101162.61
2019-03-11T16:37:36.330Z,101159.55
2019-03-11T16:40:03.550Z,101158.06
2019-03-11T16:42:30.162Z,101154.03
2019-03-11T16:44:56.852Z,101160.08
2019-03-11T16:47:23.579Z,101167.48
2019-03-11T16:49:50.289Z,101172.57
2019-03-11T16:52:17.042Z,101175.53
2019-03-11T16:54:43.642Z,101182.34
2019-03-11T16:57:10.385Z,101191.14
2019-03-11T16:59:37.004Z,101195.47
2019-03-11T17:02:04.106Z,101210.75
2019-03-11T17:04:30.819Z,101203.85
2019-03-11T17:06:57.468Z,101218.91
2019-03-11T17:09:24.239Z,101219.52
2019-03-11T17:11:50.933Z,101199.61
2019-03-11T17:14:17.557Z,101222.51
2019-03-11T17:16:44.270Z,101222.06
2019-03-11T17:19:11.035Z,101215.28
2019-03-11T17:21:37.678Z,101226.52
2019-03-11T17:24:04.379Z,101238.81
2019-03-11T17:26:31.025Z,101249.63
2019-03-11T17:28:57.774Z,101250.91
2019-03-11T17:31:24.463Z,101266.56
2019-03-11T17:33:51.196Z,101243.05
2019-03-11T17:36:18.012Z,101265.41
2019-03-11T17:38:44.609Z,101278.48
2019-03-11T17:41:11.306Z,101282.48
2019-03-11T17:43:38.309Z,101307.42
2019-03-11T17:46:05.111Z,101312.41
2019-03-11T17:48:31.809Z,101312.72
2019-03-11T17:50:58.561Z,101327.98
2019-03-11T17:53:25.301Z,101329.16
2019-03-11T17:55:52.015Z,101336.06
2019-03-11T17:58:18.660Z,101342.41
2019-03-11T18:00:54.831Z,101339.67
2019-03-11T18:03:14.934Z,101333.30
2019-03-11T18:05:41.754Z,101353.45
2019-03-11T18:08:08.556Z,101362.48
2019-03-11T18:10:35.308Z,101376.37
2019-03-11T18:13:02.409Z,101385.91
2019-03-11T18:15:29.122Z,101387.29
2019-03-11T18:17:55.809Z,101386.16
2019-03-11T18:20:22.661Z,101382.64
2019-03-11T18:22:49.392Z,101392.83
2019-03-11T18:25:16.208Z,101405.02
2019-03-11T18:27:43.028Z,101396.33
2019-03-11T18:30:11.942Z,101400.78
2019-03-11T18:32:38.749Z,101405.54
2019-03-11T18:35:05.608Z,101421.68
2019-03-11T18:37:32.317Z,101427.73
2019-03-11T18:39:58.956Z,101433.56
2019-03-11T18:42:28.407Z,101438.87
2019-03-11T18:44:54.415Z,101457.75
2019-03-11T18:47:21.138Z,101472.70
2019-03-11T18:49:48.053Z,101451.89
2019-03-11T18:52:14.864Z,101457.94
2019-03-11T18:54:41.490Z,101470.89
2019-03-11T18:57:08.302Z,101478.94
2019-03-11T18:59:34.947Z,101467.91
2019-03-11T19:02:01.611Z,101485.61
2019-03-11T19:04:28.396Z,101491.98
2019-03-11T19:06:55.101Z,101495.80
2019-03-11T19:09:21.707Z,101497.71
2019-03-11T19:11:48.443Z,101497.62
2019-03-11T19:14:15.311Z,101497.41
2019-03-11T19:16:42.000Z,101505.27
2019-03-11T19:19:08.772Z,101501.54
2019-03-11T19:21:35.553Z,101505.55
2019-03-11T19:24:02.459Z,101516.70
2019-03-11T19:26:29.181Z,101509.50
2019-03-11T19:28:55.822Z,101511.06
2019-03-11T19:31:22.427Z,101522.19
2019-03-11T19:33:49.169Z,101524.44
2019-03-11T19:36:15.966Z,101534.73
2019-03-11T19:38:42.689Z,101530.19
2019-03-11T19:41:09.313Z,101536.67
2019-03-11T19:43:36.039Z,101545.67
2019-03-11T19:46:02.736Z,101544.64
2019-03-11T19:48:29.509Z,101548.66
2019-03-11T19:50:56.214Z,101551.00
2019-03-11T19:53:22.924Z,101553.45
2019-03-11T19:55:49.652Z,101555.55
2019-03-11T19:58:16.406Z,101554.92
2019-03-11T20:00:43.188Z,101566.49
2019-03-11T20:03:22.680Z,101561.41
2019-03-11T20:05:38.654Z,101565.02
2019-03-11T20:08:05.457Z,101559.55
2019-03-11T20:10:32.286Z,101568.80
2019-03-11T20:12:59.011Z,101565.51
2019-03-11T20:15:26.026Z,101577.48
2019-03-11T20:17:53.044Z,101600.52
2019-03-11T20:20:20.163Z,101588.11
2019-03-11T20:22:47.000Z,101594.38
2019-03-11T20:25:16.568Z,101600.84
2019-03-11T20:27:43.323Z,101603.42
2019-03-11T20:30:13.604Z,101597.45
2019-03-11T20:32:40.301Z,101608.22
2019-03-11T20:35:07.165Z,101598.92
2019-03-11T20:37:33.867Z,101602.22
2019-03-11T20:40:00.479Z,101606.39
2019-03-11T20:42:27.343Z,101605.64
2019-03-11T20:44:54.719Z,101611.06
2019-03-11T20:47:21.639Z,101617.74
2019-03-11T20:49:48.645Z,101624.66
2019-03-11T20:52:15.369Z,101624.25
2019-03-11T20:54:42.105Z,101625.31
2019-03-11T20:57:08.735Z,101632.93
2019-03-11T20:59:35.338Z,101636.13
2019-03-11T21:02:02.089Z,101641.20
2019-03-11T21:04:28.817Z,101640.58
2019-03-11T21:06:55.489Z,101646.32
2019-03-11T21:09:22.356Z,101644.01
2019-03-11T21:11:49.103Z,101644.86
2019-03-11T21:14:16.010Z,101642.80
2019-03-11T21:16:42.644Z,101649.61
2019-03-11T21:19:09.243Z,101652.14
2019-03-11T21:21:36.006Z,101651.30
2019-03-11T21:24:02.815Z,101656.61
2019-03-11T21:26:29.578Z,101657.66
2019-03-11T21:28:56.234Z,101656.91
2019-03-11T21:31:22.970Z,101657.58
2019-03-11T21:33:58.386Z,101655.44
2019-03-11T21:36:18.365Z,101656.81
2019-03-11T21:38:45.010Z,101663.05
2019-03-11T21:41:11.845Z,101667.63
2019-03-11T21:43:38.963Z,101669.94
2019-03-11T21:46:06.300Z,101667.77
2019-03-11T21:48:33.020Z,101670.38
2019-03-11T21:50:59.939Z,101672.28
2019-03-11T21:53:26.975Z,101678.03
2019-03-11T21:55:53.912Z,101682.49
2019-03-11T21:58:21.084Z,101691.61
2019-03-11T22:00:47.918Z,101697.77
2019-03-11T22:03:15.132Z,101694.14
2019-03-11T22:05:41.844Z,101695.30
2019-03-11T22:08:08.611Z,101696.68
2019-03-11T22:10:35.328Z,101694.69
2019-03-11T22:13:01.942Z,101709.09
2019-03-11T22:15:28.874Z,101703.12
2019-03-11T22:17:55.567Z,101710.61
2019-03-11T22:20:22.379Z,101705.17
2019-03-11T22:22:49.216Z,101704.34
2019-03-11T22:25:15.924Z,101708.70
2019-03-11T22:27:42.642Z,101704.78
2019-03-11T22:30:16.797Z,101705.09
2019-03-11T22:32:43.502Z,101707.80
2019-03-11T22:35:12.996Z,101705.16
2019-03-11T22:37:38.750Z,101720.95
2019-03-11T22:40:06.389Z,101721.43
2019-03-11T22:42:33.117Z,101725.25
2019-03-11T22:44:59.743Z,101723.92
2019-03-11T22:47:26.484Z,101728.17
2019-03-11T22:49:53.116Z,101717.82
2019-03-11T22:52:19.836Z,101719.95
2019-03-11T22:54:46.484Z,101725.41
2019-03-11T22:57:13.155Z,101721.88
2019-03-11T22:59:39.875Z,101715.81
2019-03-11T23:02:11.714Z,101721.83
2019-03-11T23:04:38.221Z,101720.50
2019-03-11T23:07:04.936Z,101716.44
2019-03-11T23:09:31.535Z,101722.30
2019-03-11T23:11:58.281Z,101711.83
2019-03-11T23:14:24.873Z,101712.58
2019-03-11T23:16:51.476Z,101714.49
2019-03-11T23:19:18.185Z,101720.49
2019-03-11T23:21:44.786Z,101720.15
2019-03-11T23:24:11.387Z,101729.55
2019-03-11T23:26:38.020Z,101727.32
2019-03-11T23:29:04.719Z,101734.25
2019-03-11T23:31:31.344Z,101734.88
2019-03-11T23:33:57.994Z,101733.55
2019-03-11T23:36:24.601Z,101735.72
2019-03-11T23:38:51.195Z,101729.30
2019-03-11T23:41:17.844Z,101729.44
2019-03-11T23:43:44.539Z,101724.12
2019-03-11T23:46:11.178Z,101722.34
2019-03-11T23:48:37.813Z,101714.82
2019-03-11T23:51:04.428Z,101706.55
2019-03-11T23:53:31.035Z,101701.96
2019-03-11T23:55:57.675Z,101702.01
2019-03-11T23:58:24.279Z,101700.76
